Topeka, KS

4:40 PM CDT on May 04, 2015 (GMT -0500)
Elmhurst | | Change Station
CLOSE
Current Station
Personal Weather Station
Location: Topeka, KS
Elevation: 953 ft
Nearby Weather Stations
Active Advisory: Severe Thunderstorm Watch

Elev 953 ft 39.05 °N, 95.70 °W | Updated 1 second ago

Scattered Clouds
Scattered Clouds
84.6 °F
Feels Like 85 °F
N
6.0
Wind Variable Wind from SSE

Today
High -- | Low -- °F
--% Chance of Precip.
Yesterday
High -- | Low -- °F
Precip. -- in
6:21 AM 8:18 PM
Waxing Gibbous, 99% visible
Pressure 29.94 in
Visibility 10.0 miles
Clouds Few 6000 ft
Scattered Clouds 7500 ft
Scattered Clouds 9000 ft
Heat Index 85 °F
Dew Point 61 °F
Humidity 45%
Rainfall 0.00 in
Snow Depth Not available.
UV 6 out of 12
Pollen 6.00 out of 12
Air Quality Not available.
Flu Activity Sporadic
METAR KTOP 042053Z 16013G21KT 10SM FEW060 SCT075 SCT090 29/14 A2996 RMK AO2 LTG DSNT NW SLP137 T02890144 58021

More Conditions Fewer Conditions

Pressure 29.94 in
Visibility 10.0 miles
Clouds Few 6000 ft
Scattered Clouds 7500 ft
Scattered Clouds 9000 ft
Heat Index 85 °F
Dew Point 61 °F
Humidity 45%
Rainfall 0.00 in
Snow Depth Not available.
UV 6 out of 12
Pollen 6.00 out of 12
Air Quality Not available.
Flu Activity Sporadic
METAR KTOP 042053Z 16013G21KT 10SM FEW060 SCT075 SCT090 29/14 A2996 RMK AO2 LTG DSNT NW SLP137 T02890144 58021

More Conditions Fewer Conditions

Nepal has a long way to go to dig out and rebuild from a devastating earthquake. We have teamed up with several charities and organizations to make contributing to the relief effort as easy as possible.
How you can help: Portlight Strategies | Red Cross

10-Day Weather Forecast

Almanac

Astronomy

May. 04, 2015 Rise Set
Actual Time
Civil Twilight
Nautical Twilight
Astronomical Twilight
Moon
Length of Visible Light
Length of Day
Tomorrow will be .
, % of the Moon is Illuminated

Today's Extremes

State Highs State Lows

Community

WunderPhotos

Upload Photos

1,818,707 photos uploaded!

WunderBlogs® & News

Nearby

Air Quality

  Air Quality AQ Index Pollutant
Not available.

Snow Depth

Station Depth Elevation

Earthquake Activity

City Distance Mag. Time & Date
Minimum magnitude displayed is 2.5.

Coastal Water Temperatures

Place Temperature

Stations

Nearby Weather Stations

Station Location Temp. Windchill Dew Point Humidity Wind Precip. Elev Updated Type
                   
Severe Thunderstorm Watch
Statement as of 3:27 PM CDT on May 04, 2015


The National Weather Service has issued Severe Thunderstorm Watch
130 in effect until 9 PM CDT this evening for the following areas

In Kansas this watch includes 17 counties

In east central Kansas

Geary Morris Shawnee
Wabaunsee

In north central Kansas

Clay cloud Dickinson
Ottawa Republic Washington

In northeast Kansas

Brown Jackson Jefferson
Marshall Nemaha Pottawatomie
Riley

This includes the cities of... Abilene... Clay Center... Concordia...
Hiawatha... Junction City... Manhattan... Marysville and Topeka.